Time;durP1;ratioP1;P1;durP2;ratioP2;P2;SDS_P1;SDS_P2;PMS_P1;PMS_P2;Temp;Humidity;BMP_temperature;BMP_pressure;BME280_temperature;BME280_humidity;BME280_pressure;Samples;Min_cycle;Max_cycle;Signal;HPM_P1;HPM_P2
2022/03/28 00:01:31;;;;;;;36.07;22.33;;;11.10;99.90;;;;;;5100711;28;20295;-78
2022/03/28 00:03:58;;;;;;;38.20;22.57;;;11.10;99.90;;;;;;5091354;28;20223;-78
2022/03/28 00:06:26;;;;;;;37.37;23.03;;;11.10;99.90;;;;;;5102036;28;20286;-78
2022/03/28 00:08:54;;;;;;;35.87;22.53;;;10.90;99.90;;;;;;5082769;28;20365;-78
2022/03/28 00:11:21;;;;;;;34.73;21.47;;;10.90;99.90;;;;;;5079794;28;20269;-78
2022/03/28 00:13:48;;;;;;;37.93;22.40;;;10.80;99.90;;;;;;5078095;28;20227;-78
2022/03/28 00:16:16;;;;;;;37.77;22.33;;;11.00;99.90;;;;;;5079320;28;20667;-78
2022/03/28 00:18:42;;;;;;;35.63;22.47;;;11.00;99.90;;;;;;5076599;28;20630;-78
2022/03/28 00:21:09;;;;;;;39.70;23.10;;;10.90;99.90;;;;;;5077550;28;20302;-79
2022/03/28 00:23:36;;;;;;;36.97;23.37;;;11.00;99.90;;;;;;5091583;28;20222;-78
2022/03/28 00:26:04;;;;;;;35.77;22.33;;;11.00;99.90;;;;;;5074319;28;20226;-78
2022/03/28 00:28:31;;;;;;;40.43;22.73;;;10.90;99.90;;;;;;5084877;28;20233;-78
2022/03/28 00:30:58;;;;;;;35.73;22.83;;;10.90;99.90;;;;;;5083138;28;20267;-78
2022/03/28 00:33:25;;;;;;;42.33;23.63;;;10.80;99.90;;;;;;5074747;28;20225;-78
2022/03/28 00:35:52;;;;;;;37.43;22.87;;;10.80;99.90;;;;;;5081278;28;20230;-78
2022/03/28 00:38:19;;;;;;;36.27;22.37;;;10.70;99.90;;;;;;5076772;28;20356;-78
2022/03/28 00:40:46;;;;;;;38.13;23.03;;;10.60;99.90;;;;;;5084812;28;20738;-79
2022/03/28 00:43:14;;;;;;;42.13;22.53;;;10.50;99.90;;;;;;5083249;28;20350;-78
2022/03/28 00:45:43;;;;;;;38.67;23.07;;;10.60;99.90;;;;;;5091253;28;20232;-78
2022/03/28 00:48:10;;;;;;;35.77;23.00;;;10.60;99.90;;;;;;5087893;28;20218;-78
2022/03/28 00:50:38;;;;;;;36.60;22.43;;;10.60;99.90;;;;;;5081775;28;20305;-78
2022/03/28 00:53:06;;;;;;;38.30;22.50;;;10.60;99.90;;;;;;5068788;28;20693;-78
2022/03/28 00:55:34;;;;;;;35.90;22.00;;;10.60;99.90;;;;;;5077684;28;20629;-78
2022/03/28 00:58:01;;;;;;;39.03;22.23;;;10.50;99.90;;;;;;5086140;28;20677;-78
2022/03/28 01:00:29;;;;;;;37.67;23.27;;;10.50;99.90;;;;;;5088316;28;20219;-79
2022/03/28 01:02:57;;;;;;;36.23;23.07;;;10.50;99.90;;;;;;5084069;28;20742;-77
2022/03/28 01:05:26;;;;;;;39.03;22.43;;;10.60;99.90;;;;;;5089632;28;20251;-79
2022/03/28 01:07:55;;;;;;;35.53;21.70;;;10.60;99.90;;;;;;5105278;28;20229;-77
2022/03/28 01:10:24;;;;;;;37.90;23.00;;;10.50;99.90;;;;;;5107369;28;20633;-77
2022/03/28 01:12:51;;;;;;;35.90;22.23;;;10.40;99.90;;;;;;5113820;28;20247;-79
2022/03/28 01:15:18;;;;;;;39.20;23.63;;;10.30;99.90;;;;;;5105406;28;20697;-79
2022/03/28 01:20:31;;;;;;;37.57;23.47;;;10.20;99.90;;;;;;5106467;28;20585;-79
2022/03/28 01:23:00;;;;;;;36.43;22.30;;;10.20;99.90;;;;;;5103676;28;20230;-79
2022/03/28 01:25:30;;;;;;;36.00;22.17;;;10.10;99.90;;;;;;5105963;28;20281;-78
2022/03/28 01:27:58;;;;;;;34.90;21.97;;;9.90;99.90;;;;;;5104848;28;20194;-78
2022/03/28 01:30:28;;;;;;;39.13;22.87;;;9.90;99.90;;;;;;5101016;28;20194;-78
2022/03/28 01:32:56;;;;;;;36.63;22.70;;;9.90;99.90;;;;;;5095599;28;20598;-78
2022/03/28 01:35:31;;;;;;;37.27;22.87;;;9.80;99.90;;;;;;5109997;28;20234;-78
2022/03/28 01:38:00;;;;;;;37.83;22.13;;;9.80;99.90;;;;;;5102193;28;20255;-78
2022/03/28 01:40:27;;;;;;;38.07;22.40;;;9.80;99.90;;;;;;5107669;28;20251;-78
2022/03/28 01:42:54;;;;;;;35.90;21.87;;;9.90;99.90;;;;;;5098302;28;20244;-78
2022/03/28 01:45:21;;;;;;;38.07;21.87;;;9.90;99.90;;;;;;5097683;28;20206;-78
2022/03/28 01:47:49;;;;;;;39.70;23.50;;;9.90;99.90;;;;;;5114447;28;20221;-78
2022/03/28 01:50:16;;;;;;;39.27;22.67;;;10.00;99.90;;;;;;5112787;28;20298;-78
2022/03/28 01:52:43;;;;;;;37.43;22.23;;;10.00;99.90;;;;;;5100576;28;20288;-78
2022/03/28 01:55:13;;;;;;;38.63;22.47;;;10.00;99.90;;;;;;5095213;28;20289;-78
2022/03/28 01:57:40;;;;;;;33.03;21.07;;;10.00;99.90;;;;;;5110190;28;20309;-78
2022/03/28 02:00:10;;;;;;;39.67;22.20;;;10.00;99.90;;;;;;5108531;28;20315;-78
2022/03/28 02:02:37;;;;;;;39.07;22.20;;;9.90;99.90;;;;;;5107395;28;20253;-78
2022/03/28 02:05:05;;;;;;;36.17;22.20;;;10.00;99.90;;;;;;5108032;28;20201;-78
2022/03/28 02:07:32;;;;;;;38.73;22.67;;;10.00;99.90;;;;;;5114308;28;20264;-78
2022/03/28 02:09:59;;;;;;;37.40;22.47;;;10.00;99.90;;;;;;5100058;28;20317;-78
2022/03/28 02:12:27;;;;;;;39.27;22.47;;;10.00;99.90;;;;;;5102932;28;20292;-78
2022/03/28 02:14:54;;;;;;;40.33;23.00;;;10.10;99.90;;;;;;5105823;28;20227;-78
2022/03/28 02:17:21;;;;;;;35.97;21.70;;;10.10;99.90;;;;;;5105055;28;20253;-78
2022/03/28 02:19:47;;;;;;;37.50;22.20;;;10.00;99.90;;;;;;5107931;28;20283;-78
2022/03/28 02:22:14;;;;;;;38.33;22.83;;;10.00;99.90;;;;;;5106545;28;20204;-78
2022/03/28 02:24:41;;;;;;;49.53;23.47;;;9.80;99.90;;;;;;5104713;28;20239;-79
2022/03/28 02:27:08;;;;;;;36.83;22.70;;;9.70;99.90;;;;;;5105557;28;20273;-79
2022/03/28 02:29:36;;;;;;;32.57;20.57;;;9.60;99.90;;;;;;5097723;28;20661;-79
2022/03/28 02:32:04;;;;;;;39.20;22.57;;;9.50;99.90;;;;;;5104993;28;20224;-79
2022/03/28 02:34:31;;;;;;;36.73;21.63;;;9.60;99.90;;;;;;5104808;28;20288;-78
2022/03/28 02:36:58;;;;;;;36.20;22.23;;;9.60;99.90;;;;;;5083843;28;20258;-78
2022/03/28 02:39:25;;;;;;;36.53;22.90;;;9.40;99.90;;;;;;5101650;28;20290;-78
2022/03/28 02:41:52;;;;;;;38.20;22.20;;;9.30;99.90;;;;;;5095752;28;20299;-78
2022/03/28 02:44:19;;;;;;;36.30;22.00;;;9.20;99.90;;;;;;5109369;28;20197;-78
2022/03/28 02:46:48;;;;;;;36.17;20.60;;;9.20;99.90;;;;;;5104478;28;20643;-78
2022/03/28 02:49:15;;;;;;;37.17;21.90;;;9.20;99.90;;;;;;5101204;28;20199;-78
2022/03/28 02:51:43;;;;;;;36.90;22.40;;;9.30;99.90;;;;;;5109456;28;20204;-78
2022/03/28 02:54:10;;;;;;;39.10;22.47;;;9.30;99.90;;;;;;5092905;28;20203;-78
2022/03/28 02:56:37;;;;;;;40.43;22.33;;;9.20;99.90;;;;;;5099395;28;20287;-78
2022/03/28 02:59:05;;;;;;;39.33;21.57;;;9.20;99.90;;;;;;5099605;28;20655;-78
2022/03/28 03:01:32;;;;;;;39.37;22.80;;;9.20;99.90;;;;;;5112115;28;20296;-78
2022/03/28 03:04:00;;;;;;;41.13;23.10;;;9.20;99.90;;;;;;5111864;28;20237;-77
2022/03/28 03:06:27;;;;;;;37.63;21.57;;;9.10;99.90;;;;;;5097106;28;20242;-77
2022/03/28 03:08:54;;;;;;;41.90;22.70;;;9.10;99.90;;;;;;5098810;28;20237;-77
2022/03/28 03:11:21;;;;;;;36.53;21.47;;;9.10;99.90;;;;;;5103869;28;20283;-78
2022/03/28 03:13:49;;;;;;;38.83;22.10;;;9.10;99.90;;;;;;5112345;28;20652;-78
2022/03/28 03:16:16;;;;;;;39.23;22.30;;;9.20;99.90;;;;;;5094966;28;20732;-78
2022/03/28 03:18:43;;;;;;;40.63;22.17;;;9.30;99.90;;;;;;5093180;28;20259;-77
2022/03/28 03:21:12;;;;;;;35.63;21.93;;;9.30;99.90;;;;;;5109377;28;20202;-78
2022/03/28 03:23:38;;;;;;;37.23;21.03;;;9.40;99.90;;;;;;5113450;28;20197;-78
2022/03/28 03:26:05;;;;;;;36.33;22.07;;;9.40;99.90;;;;;;5099507;28;20291;-78
2022/03/28 03:28:32;;;;;;;35.27;21.23;;;9.40;99.90;;;;;;5108087;28;20691;-78
2022/03/28 03:30:59;;;;;;;35.93;20.97;;;9.40;99.90;;;;;;5095565;28;20199;-78
2022/03/28 03:33:26;;;;;;;34.97;21.63;;;9.40;99.90;;;;;;5110115;28;20279;-78
2022/03/28 03:35:53;;;;;;;36.00;21.43;;;9.60;99.90;;;;;;5110780;28;20637;-78
2022/03/28 03:38:22;;;;;;;39.30;21.87;;;9.60;99.90;;;;;;5100081;28;20217;-78
2022/03/28 03:40:48;;;;;;;39.83;21.57;;;9.40;99.90;;;;;;5103608;28;20282;-78
2022/03/28 03:43:15;;;;;;;38.23;20.73;;;9.40;99.90;;;;;;5091554;28;20233;-78
2022/03/28 03:45:42;;;;;;;36.90;21.07;;;9.60;99.90;;;;;;5099042;28;20202;-78
2022/03/28 03:48:09;;;;;;;38.17;21.37;;;9.70;99.90;;;;;;5105217;28;20254;-78
2022/03/28 03:50:36;;;;;;;40.93;21.27;;;9.80;99.90;;;;;;5100944;28;20289;-78
2022/03/28 03:53:03;;;;;;;35.07;20.83;;;9.80;99.90;;;;;;5104084;28;20240;-78
2022/03/28 03:55:31;;;;;;;36.47;20.93;;;9.70;99.90;;;;;;5100436;28;20226;-78
2022/03/28 03:57:58;;;;;;;35.67;20.43;;;9.70;99.90;;;;;;5109314;28;20323;-78
2022/03/28 04:00:26;;;;;;;37.00;21.60;;;9.80;99.90;;;;;;5110672;28;20228;-78
2022/03/28 04:02:53;;;;;;;40.13;22.47;;;9.90;99.90;;;;;;5101230;28;20621;-78
2022/03/28 04:05:20;;;;;;;40.43;21.93;;;9.90;99.90;;;;;;5092306;28;20194;-78
2022/03/28 04:07:47;;;;;;;33.27;20.23;;;9.90;99.90;;;;;;5109208;28;20637;-78
2022/03/28 04:10:14;;;;;;;33.90;20.57;;;9.80;99.90;;;;;;5101113;28;20229;-78
2022/03/28 04:12:42;;;;;;;37.33;20.60;;;9.70;99.90;;;;;;5100947;28;20625;-78
2022/03/28 04:15:10;;;;;;;38.30;21.13;;;9.70;99.90;;;;;;5106149;28;20206;-78
2022/03/28 04:17:41;;;;;;;35.53;20.43;;;9.70;99.90;;;;;;5095677;28;20222;-78
2022/03/28 04:20:09;;;;;;;37.20;21.47;;;9.70;99.90;;;;;;5094950;28;20288;-78
2022/03/28 04:22:36;;;;;;;38.13;20.63;;;9.70;99.90;;;;;;5098184;28;20270;-78
2022/03/28 04:25:04;;;;;;;37.50;21.37;;;9.70;99.90;;;;;;5094643;28;20257;-78
2022/03/28 04:27:31;;;;;;;35.47;20.83;;;9.60;99.90;;;;;;5106575;28;20218;-77
2022/03/28 04:29:59;;;;;;;38.23;22.17;;;9.70;99.90;;;;;;5092556;28;20229;-78
2022/03/28 04:32:26;;;;;;;32.87;20.50;;;9.60;99.90;;;;;;5104042;28;20229;-78
2022/03/28 04:34:53;;;;;;;36.70;20.70;;;9.60;99.90;;;;;;5100450;28;20241;-79
2022/03/28 04:37:20;;;;;;;39.70;22.60;;;9.60;99.90;;;;;;5102224;28;20258;-78
2022/03/28 04:39:47;;;;;;;36.63;20.63;;;9.60;99.90;;;;;;5103459;28;20280;-78
2022/03/28 04:42:14;;;;;;;36.47;20.67;;;9.50;99.90;;;;;;5094390;28;20218;-78
2022/03/28 04:44:41;;;;;;;37.83;20.97;;;9.50;99.90;;;;;;5102927;28;20294;-77
2022/03/28 04:47:09;;;;;;;38.90;21.17;;;9.50;99.90;;;;;;5103778;28;20216;-78
2022/03/28 04:49:36;;;;;;;35.73;21.03;;;9.50;99.90;;;;;;5103056;28;20276;-78
2022/03/28 04:52:04;;;;;;;37.90;21.90;;;9.50;99.90;;;;;;5108469;28;20253;-77
2022/03/28 04:54:31;;;;;;;38.53;20.23;;;9.50;99.90;;;;;;5104777;28;20287;-78
2022/03/28 04:56:57;;;;;;;38.83;22.07;;;9.50;99.90;;;;;;5096863;28;20289;-78
2022/03/28 04:59:24;;;;;;;37.90;21.30;;;9.50;99.90;;;;;;5102405;28;20327;-78
2022/03/28 05:01:51;;;;;;;38.57;22.03;;;9.50;99.90;;;;;;5103768;28;20201;-77
2022/03/28 05:04:19;;;;;;;41.83;21.90;;;9.40;99.90;;;;;;5107943;28;20223;-78
2022/03/28 05:06:46;;;;;;;36.17;22.00;;;9.40;99.90;;;;;;5092564;28;20301;-77
2022/03/28 05:09:13;;;;;;;36.23;21.37;;;9.30;99.90;;;;;;5090629;28;20236;-79
2022/03/28 05:11:40;;;;;;;38.70;21.77;;;9.20;99.90;;;;;;5080284;28;20287;-77
2022/03/28 05:14:07;;;;;;;38.00;21.43;;;9.00;99.90;;;;;;5076370;28;20581;-78
2022/03/28 05:16:34;;;;;;;38.67;21.87;;;8.90;99.90;;;;;;5089284;28;20595;-77
2022/03/28 05:19:01;;;;;;;35.73;21.57;;;8.90;99.90;;;;;;5073673;28;20342;-77
2022/03/28 05:21:30;;;;;;;36.03;20.67;;;8.90;99.90;;;;;;5089627;28;20226;-79
2022/03/28 05:23:57;;;;;;;35.00;21.80;;;8.90;99.90;;;;;;5073297;28;20206;-78
2022/03/28 05:26:24;;;;;;;35.70;21.97;;;8.90;99.90;;;;;;5085956;28;20629;-78
2022/03/28 05:28:51;;;;;;;39.80;22.87;;;8.90;99.90;;;;;;5080327;28;20282;-78
2022/03/28 05:31:18;;;;;;;38.67;21.50;;;8.90;99.90;;;;;;5070925;28;20224;-77
2022/03/28 05:33:44;;;;;;;42.47;22.27;;;8.80;99.90;;;;;;5080718;28;20228;-79
2022/03/28 05:36:13;;;;;;;36.37;21.27;;;8.80;99.90;;;;;;5089931;28;20293;-78
2022/03/28 05:38:42;;;;;;;36.93;21.57;;;8.80;99.90;;;;;;5081540;28;20733;-78
2022/03/28 05:41:09;;;;;;;40.53;22.00;;;8.70;99.90;;;;;;5086901;28;20463;-79
2022/03/28 05:43:37;;;;;;;38.00;21.07;;;8.70;99.90;;;;;;5082759;28;20295;-79
2022/03/28 05:46:05;;;;;;;36.87;22.07;;;8.80;99.90;;;;;;5089937;28;20302;-78
2022/03/28 05:48:32;;;;;;;39.13;21.97;;;8.80;99.90;;;;;;5087657;28;20279;-79
2022/03/28 05:50:59;;;;;;;41.43;23.00;;;8.80;99.90;;;;;;5076343;28;20289;-79
2022/03/28 05:53:26;;;;;;;39.00;21.87;;;8.70;99.90;;;;;;5081492;28;20195;-78
2022/03/28 05:55:54;;;;;;;38.50;22.13;;;8.60;99.90;;;;;;5084643;28;20619;-77
2022/03/28 05:58:21;;;;;;;38.70;21.30;;;8.50;99.90;;;;;;5083456;28;20752;-78
2022/03/28 06:00:48;;;;;;;39.57;22.10;;;8.50;99.90;;;;;;5086193;28;20230;-77
2022/03/28 06:03:15;;;;;;;38.97;22.43;;;8.50;99.90;;;;;;5084789;28;20246;-77
2022/03/28 06:05:42;;;;;;;36.37;21.30;;;8.50;99.90;;;;;;5083151;28;20236;-77
2022/03/28 06:08:10;;;;;;;37.20;22.30;;;8.60;99.90;;;;;;5086350;28;20314;-77
2022/03/28 06:10:37;;;;;;;39.47;22.23;;;8.60;99.90;;;;;;5102160;28;20227;-77
2022/03/28 06:13:06;;;;;;;35.07;21.93;;;8.70;99.90;;;;;;5102141;28;20236;-77
2022/03/28 06:15:36;;;;;;;40.57;22.33;;;8.80;99.90;;;;;;5102278;28;20279;-77
2022/03/28 06:18:04;;;;;;;45.57;22.47;;;8.80;99.90;;;;;;5086573;28;20283;-77
2022/03/28 06:20:32;;;;;;;36.87;21.23;;;8.80;99.90;;;;;;5105183;28;20571;-78
2022/03/28 06:23:00;;;;;;;38.67;22.67;;;8.90;99.90;;;;;;5101534;28;20579;-77
2022/03/28 06:25:27;;;;;;;35.97;21.53;;;8.90;99.90;;;;;;5105711;28;20226;-76
2022/03/28 06:27:54;;;;;;;41.77;21.70;;;9.00;99.90;;;;;;5100766;28;20217;-76
2022/03/28 06:30:22;;;;;;;40.20;21.37;;;9.10;99.90;;;;;;5106113;28;20232;-77
2022/03/28 06:32:49;;;;;;;34.77;21.10;;;9.20;99.90;;;;;;5104394;28;20676;-77
2022/03/28 06:35:16;;;;;;;36.07;21.50;;;9.20;99.90;;;;;;5103828;28;20289;-77
2022/03/28 06:37:43;;;;;;;36.53;21.70;;;9.30;99.90;;;;;;5099577;28;20284;-77
2022/03/28 06:40:11;;;;;;;36.23;20.87;;;9.50;99.90;;;;;;5103205;28;20199;-77
2022/03/28 06:42:38;;;;;;;39.07;22.67;;;9.70;99.90;;;;;;5110362;28;20225;-76
2022/03/28 06:45:06;;;;;;;37.40;21.73;;;9.90;99.90;;;;;;5107401;28;20205;-77
2022/03/28 06:47:34;;;;;;;38.37;21.63;;;10.10;99.90;;;;;;5101430;28;20198;-76
2022/03/28 06:50:01;;;;;;;35.67;21.30;;;10.30;99.90;;;;;;5109914;28;20229;-76
2022/03/28 06:52:28;;;;;;;35.57;21.53;;;10.60;99.90;;;;;;5102324;28;20202;-76
2022/03/28 06:54:56;;;;;;;33.40;21.40;;;10.80;99.90;;;;;;5106744;28;20670;-76
2022/03/28 06:57:23;;;;;;;34.30;21.03;;;11.10;99.90;;;;;;5100616;28;20689;-77
2022/03/28 06:59:50;;;;;;;34.37;20.87;;;11.50;99.90;;;;;;5101638;28;20220;-76
2022/03/28 07:02:17;;;;;;;34.90;21.13;;;11.80;99.90;;;;;;5101611;28;20293;-76
2022/03/28 07:04:46;;;;;;;34.87;22.53;;;12.20;99.90;;;;;;5100769;28;20245;-75
2022/03/28 07:07:13;;;;;;;36.77;21.13;;;12.50;99.90;;;;;;5104355;28;20239;-76
2022/03/28 07:09:40;;;;;;;34.70;22.13;;;12.40;99.90;;;;;;5093461;28;20247;-76
2022/03/28 07:12:09;;;;;;;33.63;20.60;;;12.40;99.90;;;;;;5092757;28;20673;-76
2022/03/28 07:14:36;;;;;;;36.80;21.43;;;12.30;99.90;;;;;;5098248;28;20235;-77
2022/03/28 07:17:03;;;;;;;35.47;21.27;;;12.30;99.90;;;;;;5092545;28;20280;-76
2022/03/28 07:19:30;;;;;;;36.07;20.77;;;12.20;99.90;;;;;;5099676;28;20260;-77
2022/03/28 07:22:00;;;;;;;35.13;20.20;;;12.00;99.90;;;;;;5109380;28;20201;-76
2022/03/28 07:24:26;;;;;;;35.90;21.27;;;12.00;99.90;;;;;;5108588;28;20201;-76
2022/03/28 07:26:53;;;;;;;31.20;20.00;;;12.20;99.90;;;;;;5108049;28;20290;-77
2022/03/28 07:29:21;;;;;;;33.60;21.23;;;12.50;99.90;;;;;;5091934;28;20921;-77
2022/03/28 07:31:48;;;;;;;35.67;21.43;;;12.70;99.90;;;;;;5092440;28;20558;-77
2022/03/28 07:34:30;;;;;;;31.40;20.43;;;13.00;99.90;;;;;;5111590;28;20285;-77
2022/03/28 07:36:59;;;;;;;34.60;20.80;;;13.20;99.90;;;;;;5109634;28;20623;-77
2022/03/28 07:39:26;;;;;;;41.07;20.70;;;13.50;99.90;;;;;;5099472;28;20301;-76
2022/03/28 07:41:53;;;;;;;35.80;20.87;;;13.40;99.90;;;;;;5104088;28;20217;-78
2022/03/28 07:44:20;;;;;;;30.30;20.20;;;13.60;99.90;;;;;;5100865;28;20199;-76
2022/03/28 07:46:48;;;;;;;33.40;19.87;;;14.00;99.90;;;;;;5100696;28;20222;-77
2022/03/28 07:49:16;;;;;;;31.60;19.60;;;13.70;99.90;;;;;;5100850;28;20685;-77
2022/03/28 07:51:43;;;;;;;31.77;20.23;;;13.80;99.90;;;;;;5099779;28;20191;-77
2022/03/28 07:54:12;;;;;;;31.33;20.90;;;13.80;99.90;;;;;;5100687;28;20627;-78
2022/03/28 07:56:39;;;;;;;30.07;20.73;;;14.00;99.90;;;;;;5103679;28;20245;-77
2022/03/28 07:59:06;;;;;;;29.27;20.07;;;14.50;99.90;;;;;;5091979;28;20268;-77
2022/03/28 08:01:33;;;;;;;31.43;19.87;;;14.80;99.90;;;;;;5093572;28;20678;-77
2022/03/28 08:03:59;;;;;;;33.33;20.70;;;15.10;99.90;;;;;;5105579;28;20229;-77
2022/03/28 08:06:26;;;;;;;28.13;19.73;;;15.30;99.90;;;;;;5099879;28;20657;-77
2022/03/28 08:08:53;;;;;;;32.20;20.20;;;15.40;99.90;;;;;;5096664;28;20316;-77
2022/03/28 08:11:21;;;;;;;30.67;19.00;;;15.80;99.90;;;;;;5110679;28;20846;-77
2022/03/28 08:13:48;;;;;;;29.20;19.80;;;16.10;99.90;;;;;;5107270;28;20281;-77
2022/03/28 08:16:15;;;;;;;27.67;19.87;;;16.50;99.90;;;;;;5100019;28;20653;-78
2022/03/28 08:18:42;;;;;;;28.93;19.67;;;16.60;99.90;;;;;;5094037;28;20326;-78
2022/03/28 08:21:09;;;;;;;30.20;19.30;;;16.70;99.90;;;;;;5097135;28;20199;-77
2022/03/28 08:23:37;;;;;;;27.37;19.40;;;16.90;99.90;;;;;;5101535;28;20681;-77
2022/03/28 08:26:04;;;;;;;26.23;19.17;;;16.80;99.90;;;;;;5099217;28;20281;-77
2022/03/28 08:28:33;;;;;;;25.07;18.50;;;17.40;99.90;;;;;;5099885;28;20273;-78
2022/03/28 08:31:00;;;;;;;27.40;18.35;;;17.00;99.90;;;;;;5098456;28;20223;-77
2022/03/28 08:33:27;;;;;;;28.93;18.40;;;17.40;99.90;;;;;;5108164;28;20675;-78
2022/03/28 08:35:54;;;;;;;30.83;17.90;;;17.60;99.90;;;;;;5092246;28;20290;-78
2022/03/28 08:38:21;;;;;;;26.13;18.33;;;17.60;99.90;;;;;;5102463;28;20285;-78
2022/03/28 08:40:48;;;;;;;30.85;17.58;;;17.90;99.90;;;;;;5110281;28;20668;-77
2022/03/28 08:43:18;;;;;;;27.95;17.27;;;17.70;99.90;;;;;;5102926;28;20584;-78
2022/03/28 08:45:49;;;;;;;24.67;17.30;;;17.60;99.90;;;;;;5109915;28;20274;-78
2022/03/28 08:48:17;;;;;;;22.27;17.33;;;18.00;98.40;;;;;;5099867;28;20222;-78
2022/03/28 08:50:45;;;;;;;26.70;18.02;;;18.20;99.90;;;;;;5091392;28;20236;-77
2022/03/28 08:53:14;;;;;;;24.17;16.60;;;18.60;93.10;;;;;;5090558;28;20210;-78
2022/03/28 08:55:41;;;;;;;23.40;17.23;;;18.70;92.80;;;;;;5104494;28;20293;-78
2022/03/28 08:58:08;;;;;;;21.30;15.70;;;18.70;93.80;;;;;;5101016;28;20210;-78
2022/03/28 09:00:35;;;;;;;22.70;16.13;;;18.70;92.30;;;;;;5100775;28;20305;-78
2022/03/28 09:03:04;;;;;;;22.92;16.05;;;18.80;92.30;;;;;;5091486;28;20293;-77
2022/03/28 09:05:33;;;;;;;23.27;15.65;;;19.10;90.30;;;;;;5091950;28;20289;-78
2022/03/28 09:08:03;;;;;;;22.85;16.55;;;18.60;91.50;;;;;;5106744;28;20316;-78
2022/03/28 09:10:32;;;;;;;21.50;15.70;;;18.60;91.10;;;;;;5098530;28;20222;-78
2022/03/28 09:13:05;;;;;;;24.55;15.25;;;18.50;92.40;;;;;;5116147;28;20560;-76
2022/03/28 09:15:46;;;;;;;20.70;15.25;;;18.40;93.70;;;;;;5110243;28;20226;-76
2022/03/28 09:18:23;;;;;;;21.77;14.75;;;18.80;92.40;;;;;;5113417;28;20728;-78
2022/03/28 09:20:51;;;;;;;22.63;15.15;;;19.50;91.20;;;;;;5102248;28;20247;-78
2022/03/28 09:23:33;;;;;;;22.58;14.90;;;19.30;87.60;;;;;;5105131;28;20213;-79
2022/03/28 09:26:07;;;;;;;19.60;14.82;;;19.70;90.00;;;;;;5100315;28;20217;-79
2022/03/28 09:28:49;;;;;;;21.38;14.68;;;19.50;86.40;;;;;;5110579;28;20201;-79
2022/03/28 09:31:17;;;;;;;20.77;13.63;;;19.10;89.20;;;;;;5099300;28;20753;-78
2022/03/28 09:33:53;;;;;;;21.80;14.13;;;19.40;89.60;;;;;;5105109;28;20278;-77
2022/03/28 09:36:35;;;;;;;23.02;13.73;;;19.80;86.10;;;;;;5100911;28;20512;-79
2022/03/28 09:39:03;;;;;;;18.55;13.98;;;20.10;79.10;;;;;;5110959;28;20216;-79
2022/03/28 09:41:30;;;;;;;22.30;13.60;;;20.30;80.40;;;;;;5109187;28;20201;-78
2022/03/28 09:43:57;;;;;;;17.63;12.27;;;21.20;69.70;;;;;;5107612;28;20198;-78
2022/03/28 09:46:28;;;;;;;20.02;12.02;;;21.70;66.50;;;;;;5098774;28;20190;-78
2022/03/28 09:48:57;;;;;;;16.52;11.50;;;22.50;53.60;;;;;;5105219;28;20277;-78
2022/03/28 09:51:27;;;;;;;17.48;10.85;;;22.20;46.40;;;;;;5107727;28;20633;-79
2022/03/28 09:53:54;;;;;;;15.18;8.40;;;21.90;55.50;;;;;;5105533;28;20217;-78
2022/03/28 09:56:21;;;;;;;13.95;7.18;;;21.60;36.10;;;;;;5102949;28;20285;-78
2022/03/28 09:58:49;;;;;;;14.27;7.40;;;20.30;34.20;;;;;;5107098;28;20268;-78
2022/03/28 10:01:21;;;;;;;16.45;7.93;;;20.20;42.60;;;;;;5097933;28;20285;-79
2022/03/28 10:03:49;;;;;;;11.93;7.85;;;20.00;47.00;;;;;;5105966;28;20226;-78
2022/03/28 10:06:18;;;;;;;13.05;7.80;;;19.80;52.30;;;;;;5108888;28;20201;-78
2022/03/28 10:08:45;;;;;;;16.42;8.10;;;19.80;57.10;;;;;;5106612;28;20221;-77
2022/03/28 10:11:14;;;;;;;14.93;8.20;;;19.50;61.30;;;;;;5104988;28;20289;-77
2022/03/28 10:13:41;;;;;;;14.13;8.10;;;19.80;63.70;;;;;;5101727;28;20189;-77
2022/03/28 10:16:09;;;;;;;13.43;7.80;;;20.40;55.80;;;;;;5108884;28;20328;-78
2022/03/28 10:18:38;;;;;;;12.98;8.30;;;20.40;54.80;;;;;;5095069;28;20226;-78
2022/03/28 10:21:08;;;;;;;15.10;8.18;;;20.10;58.00;;;;;;5112987;28;20249;-78
2022/03/28 10:23:43;;;;;;;15.13;8.10;;;20.50;56.70;;;;;;5103571;28;20232;-77
2022/03/28 10:26:11;;;;;;;19.40;8.13;;;20.90;53.30;;;;;;5103365;28;20220;-77
2022/03/28 10:28:39;;;;;;;16.35;8.73;;;21.10;42.60;;;;;;5102460;28;20208;-77
2022/03/28 10:31:14;;;;;;;14.93;8.27;;;20.40;48.90;;;;;;5106451;28;20232;-78
2022/03/28 10:33:51;;;;;;;14.35;9.27;;;19.60;60.90;;;;;;5096155;28;20202;-77
2022/03/28 10:36:28;;;;;;;14.45;8.98;;;19.60;70.60;;;;;;5108422;28;20289;-77
2022/03/28 10:39:32;;;;;;;16.23;8.60;;;19.50;75.60;;;;;;5095481;28;20208;-77
2022/03/28 10:42:13;;;;;;;12.35;8.25;;;19.50;52.10;;;;;;5101542;28;20776;-77
2022/03/28 10:44:58;;;;;;;15.57;8.52;;;20.70;56.00;;;;;;5109186;28;20696;-77
2022/03/28 10:47:41;;;;;;;15.60;9.70;;;21.20;39.70;;;;;;5106837;28;20225;-77
2022/03/28 10:50:10;;;;;;;20.63;10.60;;;20.10;42.90;;;;;;5095255;28;20194;-76
2022/03/28 10:52:37;;;;;;;17.25;9.73;;;19.90;49.00;;;;;;5112974;28;20194;-78
2022/03/28 10:55:11;;;;;;;16.60;10.20;;;19.80;52.80;;;;;;5101803;28;20202;-77
2022/03/28 10:57:38;;;;;;;18.88;11.50;;;19.70;53.90;;;;;;5098026;28;20199;-77
2022/03/28 11:00:09;;;;;;;16.92;10.82;;;19.10;60.10;;;;;;5110107;28;20304;-77
2022/03/28 11:02:37;;;;;;;17.13;10.73;;;20.30;56.80;;;;;;5106970;28;20194;-77
2022/03/28 11:05:14;;;;;;;18.05;11.18;;;22.10;38.10;;;;;;5109121;28;20197;-77
2022/03/28 11:07:41;;;;;;;22.27;11.07;;;21.20;24.00;;;;;;5098578;28;20230;-77
2022/03/28 11:10:13;;;;;;;19.20;11.75;;;21.60;32.80;;;;;;5093468;28;20281;-77
2022/03/28 11:12:42;;;;;;;15.63;10.75;;;23.10;20.70;;;;;;5100066;28;20271;-76
2022/03/28 11:15:16;;;;;;;17.23;11.20;;;24.20;3.40;;;;;;5092012;28;20662;-76
2022/03/28 11:18:04;;;;;;;18.02;11.60;;;23.10;6.40;;;;;;5086370;28;20199;-77
2022/03/28 11:20:45;;;;;;;19.75;11.02;;;21.80;15.90;;;;;;5095203;28;20214;-78
2022/03/28 11:23:13;;;;;;;19.45;11.45;;;22.50;14.90;;;;;;5100366;28;20193;-78
2022/03/28 11:25:46;;;;;;;16.48;10.88;;;22.90;8.90;;;;;;5111238;28;20873;-78
2022/03/28 11:28:32;;;;;;;18.13;10.90;;;23.40;14.20;;;;;;5096526;28;20723;-77
2022/03/28 11:31:03;;;;;;;17.92;11.95;;;24.70;3.80;;;;;;5096627;28;20889;-77
2022/03/28 11:33:39;;;;;;;15.85;10.20;;;23.60;1.00;;;;;;5094664;28;20289;-78
2022/03/28 11:36:08;;;;;;;18.83;9.85;;;24.60;1.00;;;;;;5092048;28;20189;-77
2022/03/28 11:38:38;;;;;;;15.13;9.02;;;23.00;1.00;;;;;;5112915;28;20232;-77
2022/03/28 11:41:08;;;;;;;15.25;8.88;;;22.60;1.00;;;;;;5112605;28;20308;-78
2022/03/28 11:43:37;;;;;;;13.38;8.88;;;22.20;1.00;;;;;;5112135;28;20236;-78
2022/03/28 11:46:11;;;;;;;15.27;8.73;;;23.00;1.70;;;;;;5112749;28;20240;-78
2022/03/28 11:48:50;;;;;;;13.93;7.72;;;24.90;1.00;;;;;;5104011;28;20212;-80
2022/03/28 11:51:17;;;;;;;13.93;9.10;;;23.90;1.00;;;;;;5099478;28;20210;-80
2022/03/28 11:53:44;;;;;;;15.07;8.70;;;22.40;1.00;;;;;;5099240;28;20226;-80
2022/03/28 11:56:23;;;;;;;17.20;8.18;;;21.60;1.00;;;;;;5099195;28;20285;-80
2022/03/28 11:58:50;;;;;;;14.73;8.35;;;21.90;4.80;;;;;;5092257;28;20263;-80
2022/03/28 12:01:17;;;;;;;16.40;8.00;;;22.10;1.00;;;;;;5110523;28;20253;-80
2022/03/28 12:03:49;;;;;;;17.38;8.98;;;21.90;1.00;;;;;;5103697;28;20198;-80
2022/03/28 12:06:27;;;;;;;18.38;8.20;;;23.00;1.00;;;;;;5103252;28;20221;-80
2022/03/28 12:08:54;;;;;;;15.50;8.70;;;23.40;1.00;;;;;;5102502;28;20232;-80
2022/03/28 12:11:23;;;;;;;13.43;8.77;;;21.60;2.70;;;;;;5091738;28;20228;-80
2022/03/28 12:13:51;;;;;;;14.73;9.05;;;21.70;10.40;;;;;;5092095;28;20252;-80
2022/03/28 12:16:19;;;;;;;14.63;8.20;;;21.90;10.90;;;;;;5091487;28;20618;-80
2022/03/28 12:18:46;;;;;;;13.45;8.05;;;22.20;11.30;;;;;;5094207;28;20622;-79
2022/03/28 12:21:13;;;;;;;15.48;9.07;;;23.00;1.00;;;;;;5112001;28;20228;-80
2022/03/28 12:23:40;;;;;;;17.38;9.55;;;22.60;1.00;;;;;;5111196;28;20255;-79
2022/03/28 12:26:07;;;;;;;15.05;8.73;;;21.40;3.70;;;;;;5107254;28;20236;-79
2022/03/28 12:28:38;;;;;;;19.75;9.10;;;21.40;4.40;;;;;;5102827;28;20286;-80
2022/03/28 12:31:08;;;;;;;13.60;8.65;;;21.70;7.70;;;;;;5100223;28;20201;-80
2022/03/28 12:33:38;;;;;;;14.70;7.70;;;22.10;1.00;;;;;;5099818;28;20268;-80
2022/03/28 12:36:07;;;;;;;15.57;9.38;;;21.80;1.00;;;;;;5099628;28;20289;-79
2022/03/28 12:38:35;;;;;;;16.15;9.38;;;21.50;10.00;;;;;;5091630;28;20677;-80
2022/03/28 12:41:05;;;;;;;15.05;9.38;;;22.00;7.90;;;;;;5092513;28;20309;-79
2022/03/28 12:43:33;;;;;;;15.18;10.13;;;22.50;17.20;;;;;;5103656;28;20209;-80